Time;durP1;ratioP1;P1;durP2;ratioP2;P2;SDS_P1;SDS_P2;PMS_P1;PMS_P2;Temp;Humidity;BMP_temperature;BMP_pressure;BME280_temperature;BME280_humidity;BME280_pressure;Samples;Min_cycle;Max_cycle;Signal;HPM_P1;HPM_P2
2022/12/02 00:01:13;;;;;;;37.63;14.05;;;3.50;99.90;;;;;;4979190;28;20038;-87
2022/12/02 00:03:40;;;;;;;39.40;15.57;;;5.00;99.90;;;;;;4978222;28;20039;-88
2022/12/02 00:06:35;;;;;;;38.50;15.10;;;3.50;99.90;;;;;;4969480;28;20042;-88
2022/12/02 00:09:24;;;;;;;37.15;14.55;;;4.50;99.90;;;;;;4971296;28;20181;-89
2022/12/02 00:11:49;;;;;;;34.88;15.32;;;3.50;99.90;;;;;;4961765;28;20479;-88
2022/12/02 00:14:34;;;;;;;36.25;15.20;;;3.60;99.90;;;;;;4975632;28;20041;-88
2022/12/02 00:17:00;;;;;;;37.05;14.77;;;4.00;99.90;;;;;;4997256;28;20125;-89
2022/12/02 00:19:25;;;;;;;35.67;13.80;;;4.40;99.90;;;;;;4989182;28;20412;-88
2022/12/02 00:21:51;;;;;;;33.27;13.57;;;3.80;99.90;;;;;;4963719;28;20274;-88
2022/12/02 00:24:18;;;;;;;33.97;13.40;;;3.60;99.90;;;;;;4944026;28;20034;-88
2022/12/02 00:26:44;;;;;;;38.35;13.93;;;4.70;99.90;;;;;;4976389;28;20046;-89
2022/12/02 00:29:10;;;;;;;35.25;13.95;;;5.20;99.90;;;;;;4970541;28;20065;-88
2022/12/02 00:31:36;;;;;;;33.42;13.23;;;3.60;99.90;;;;;;4964482;28;20057;-89
2022/12/02 00:34:03;;;;;;;31.50;13.25;;;3.50;99.90;;;;;;4996594;28;20121;-88
2022/12/02 00:36:29;;;;;;;;;;;3.60;99.90;;;;;;4965950;28;20373;-88
2022/12/02 00:38:55;;;;;;;32.75;13.88;;;3.60;99.90;;;;;;4980916;28;20008;-88
2022/12/02 00:41:21;;;;;;;35.78;14.05;;;3.60;99.90;;;;;;4973786;28;20039;-88
2022/12/02 00:46:33;;;;;;;34.97;13.80;;;4.30;99.90;;;;;;4993032;28;20129;-88
2022/12/02 00:49:07;;;;;;;39.47;14.88;;;4.20;99.90;;;;;;4984098;28;20077;-88
2022/12/02 00:51:34;;;;;;;34.65;14.52;;;3.60;99.90;;;;;;5001026;28;20092;-87
2022/12/02 00:54:00;;;;;;;37.95;14.95;;;5.10;99.90;;;;;;4973352;28;20034;-78
2022/12/02 00:56:26;;;;;;;38.95;15.35;;;3.70;99.90;;;;;;4961236;28;20719;-79
2022/12/02 00:58:52;;;;;;;37.65;14.18;;;5.00;99.90;;;;;;4967462;28;20050;-78
2022/12/02 01:01:18;;;;;;;37.10;14.00;;;3.60;99.90;;;;;;4969968;28;20042;-79
2022/12/02 01:03:44;;;;;;;36.20;13.93;;;3.50;99.90;;;;;;4950595;28;20142;-79
2022/12/02 01:06:09;;;;;;;34.13;13.48;;;3.60;99.90;;;;;;4956810;28;20508;-79
2022/12/02 01:08:35;;;;;;;34.65;13.20;;;5.40;99.90;;;;;;4982118;28;20613;-79
2022/12/02 01:11:01;;;;;;;28.42;13.07;;;4.70;99.90;;;;;;4959288;28;20058;-78
2022/12/02 01:13:27;;;;;;;33.85;12.77;;;5.10;99.90;;;;;;4950495;28;20038;-78
2022/12/02 01:15:54;;;;;;;;;;;4.60;99.90;;;;;;4992349;28;20046;-79
2022/12/02 01:18:19;;;;;;;33.95;13.20;;;3.70;99.90;;;;;;4966218;28;19957;-80
2022/12/02 01:20:45;;;;;;;35.78;13.38;;;4.90;99.90;;;;;;4968320;28;20455;-79
2022/12/02 01:23:11;;;;;;;30.35;12.23;;;4.30;99.90;;;;;;4959288;28;20034;-78
2022/12/02 01:25:37;;;;;;;34.38;12.27;;;3.60;99.90;;;;;;4975703;28;20057;-79
2022/12/02 01:28:03;;;;;;;32.90;14.07;;;4.90;99.90;;;;;;4984755;28;20043;-79
2022/12/02 01:30:29;;;;;;;30.33;12.20;;;3.40;99.90;;;;;;4975631;28;20097;-78
2022/12/02 01:32:55;;;;;;;35.70;12.85;;;3.40;99.90;;;;;;4963812;28;20431;-79
2022/12/02 01:35:20;;;;;;;32.20;12.07;;;4.00;99.90;;;;;;4966265;28;20045;-79
2022/12/02 01:37:46;;;;;;;32.33;12.23;;;3.40;99.90;;;;;;4966439;28;20286;-79
2022/12/02 01:40:13;;;;;;;34.83;11.77;;;3.80;99.90;;;;;;4968293;28;20050;-79
2022/12/02 01:42:39;;;;;;;32.95;12.80;;;3.30;99.90;;;;;;4952717;28;20117;-79
2022/12/02 01:45:07;;;;;;;29.52;12.52;;;4.80;99.90;;;;;;4954478;28;20120;-79
2022/12/02 01:47:36;;;;;;;33.90;12.40;;;3.30;99.90;;;;;;4949423;28;20038;-79
2022/12/02 01:50:03;;;;;;;32.60;12.25;;;3.40;99.90;;;;;;4978895;28;20046;-79
2022/12/02 01:52:29;;;;;;;36.83;14.48;;;3.30;99.90;;;;;;4952041;28;20042;-79
2022/12/02 01:54:54;;;;;;;33.83;12.85;;;3.30;99.90;;;;;;4979130;28;20043;-90
2022/12/02 01:57:25;;;;;;;29.85;11.40;;;3.90;99.90;;;;;;4992340;28;20121;-90
2022/12/02 01:59:51;;;;;;;34.33;12.80;;;3.10;99.90;;;;;;4983059;28;20038;-90
2022/12/02 02:02:32;;;;;;;34.60;11.80;;;1.90;99.90;;;;;;4954165;28;20053;-89
2022/12/02 02:05:01;;;;;;;37.70;13.45;;;3.30;99.90;;;;;;4972578;28;20037;-89
2022/12/02 02:07:28;;;;;;;45.13;13.63;;;4.30;99.90;;;;;;4982281;28;20034;-90
2022/12/02 02:09:54;;;;;;;39.05;14.95;;;4.30;99.90;;;;;;4990741;28;20050;-89
2022/12/02 02:12:21;;;;;;;36.78;12.75;;;3.30;99.90;;;;;;4956159;28;20034;-89
2022/12/02 02:14:47;;;;;;;35.28;12.73;;;2.40;99.90;;;;;;4974020;28;20050;-88
2022/12/02 02:17:13;;;;;;;37.33;12.85;;;3.30;99.90;;;;;;4972138;28;20105;-88
2022/12/02 02:19:38;;;;;;;38.08;12.80;;;4.40;99.90;;;;;;4971771;28;20380;-88
2022/12/02 02:22:11;;;;;;;37.95;13.30;;;3.30;99.90;;;;;;4972770;28;20484;-88
2022/12/02 02:24:37;;;;;;;35.75;11.98;;;3.30;99.90;;;;;;4973427;28;20114;-88
2022/12/02 02:27:03;;;;;;;36.88;14.23;;;3.30;99.90;;;;;;4942724;28;20070;-90
2022/12/02 02:29:28;;;;;;;35.50;14.07;;;3.30;99.90;;;;;;4975862;28;20042;-89
2022/12/02 02:31:54;;;;;;;38.97;14.25;;;3.30;99.90;;;;;;4974450;28;20794;-89
2022/12/02 02:34:20;;;;;;;38.45;14.60;;;3.30;99.90;;;;;;4957822;28;20121;-88
2022/12/02 02:36:46;;;;;;;37.83;13.32;;;3.80;99.90;;;;;;4950773;28;20077;-89
2022/12/02 02:39:15;;;;;;;39.17;14.38;;;4.00;99.90;;;;;;4962877;28;20045;-90
2022/12/02 02:41:41;;;;;;;41.40;14.63;;;4.40;99.90;;;;;;4983169;28;20533;-89
2022/12/02 02:44:06;;;;;;;34.97;13.48;;;3.20;99.90;;;;;;4968443;28;20117;-89
2022/12/02 02:46:32;;;;;;;38.37;13.83;;;4.40;99.90;;;;;;4984571;28;20038;-89
2022/12/02 02:48:58;;;;;;;35.05;13.23;;;4.50;99.90;;;;;;4961814;28;20289;-89
2022/12/02 02:51:24;;;;;;;37.03;13.02;;;4.10;99.90;;;;;;4945761;28;20387;-89
2022/12/02 02:53:49;;;;;;;37.60;13.45;;;3.70;99.90;;;;;;4945894;28;20169;-89
2022/12/02 02:56:16;;;;;;;42.50;14.23;;;3.30;99.90;;;;;;4954708;28;20536;-88
2022/12/02 02:58:42;;;;;;;36.75;15.18;;;3.20;99.90;;;;;;4961919;28;20127;-90
2022/12/02 03:01:13;;;;;;;33.33;13.38;;;3.20;99.90;;;;;;4962457;28;20078;-88
2022/12/02 03:03:59;;;;;;;38.17;14.52;;;3.40;99.90;;;;;;4983291;28;20173;-88
2022/12/02 03:06:27;;;;;;;34.28;14.07;;;3.10;99.90;;;;;;4986671;28;20029;-89
2022/12/02 03:08:54;;;;;;;37.03;14.10;;;3.10;99.90;;;;;;4992992;28;20062;-88
2022/12/02 03:11:20;;;;;;;36.30;13.10;;;3.90;99.90;;;;;;5007731;28;20046;-88
2022/12/02 03:13:47;;;;;;;38.47;14.05;;;3.10;99.90;;;;;;4966981;28;20064;-89
2022/12/02 03:16:16;;;;;;;36.97;13.65;;;3.00;99.90;;;;;;4992171;28;20498;-88
2022/12/02 03:18:44;;;;;;;35.88;13.50;;;3.00;99.90;;;;;;4983096;28;20065;-88
2022/12/02 03:21:11;;;;;;;34.33;13.20;;;4.70;99.90;;;;;;4967856;28;20039;-89
2022/12/02 03:23:36;;;;;;;;;;;3.00;99.90;;;;;;4969141;28;20042;-89
2022/12/02 03:26:03;;;;;;;32.40;12.98;;;3.00;99.90;;;;;;4960870;28;19917;-89
2022/12/02 03:28:31;;;;;;;36.67;14.18;;;3.70;99.90;;;;;;4968544;28;20041;-88
2022/12/02 03:30:57;;;;;;;31.23;12.93;;;3.90;99.90;;;;;;4966991;28;20450;-89
2022/12/02 03:33:23;;;;;;;37.85;13.70;;;2.90;99.90;;;;;;4976532;28;20039;-89
2022/12/02 03:35:49;;;;;;;36.65;12.75;;;2.90;99.90;;;;;;4967069;28;20043;-90
2022/12/02 03:38:16;;;;;;;30.48;11.77;;;2.90;99.90;;;;;;4983532;28;20058;-89
2022/12/02 03:40:42;;;;;;;36.70;13.75;;;2.90;99.90;;;;;;4985439;28;20494;-89
2022/12/02 03:43:08;;;;;;;36.88;13.70;;;4.50;99.90;;;;;;4966730;28;20030;-89
2022/12/02 03:45:34;;;;;;;37.15;13.60;;;4.60;99.90;;;;;;4943906;28;20049;-88
2022/12/02 03:48:01;;;;;;;34.65;13.68;;;3.00;99.90;;;;;;4972812;28;20403;-90
2022/12/02 03:50:27;;;;;;;38.22;13.23;;;;;;;;;;4971256;28;20042;-88
2022/12/02 03:52:53;;;;;;;39.17;13.18;;;2.90;99.90;;;;;;4980872;28;20069;-88
2022/12/02 03:55:19;;;;;;;37.65;13.35;;;2.90;99.90;;;;;;4985086;28;20038;-89
2022/12/02 03:57:45;;;;;;;34.40;12.88;;;4.10;99.90;;;;;;4972752;28;20562;-89
2022/12/02 04:00:12;;;;;;;32.20;11.98;;;2.90;99.90;;;;;;4980714;28;20121;-89
2022/12/02 04:02:38;;;;;;;35.55;13.38;;;2.80;99.90;;;;;;4964828;28;20376;-91
2022/12/02 04:05:05;;;;;;;40.63;14.02;;;4.40;99.90;;;;;;4956779;28;20069;-89
2022/12/02 04:07:31;;;;;;;37.50;13.07;;;2.90;99.90;;;;;;4931543;28;1098907;-89
2022/12/02 04:09:57;;;;;;;35.08;14.02;;;2.80;99.90;;;;;;4945338;28;20513;-89
2022/12/02 04:12:22;;;;;;;41.75;13.90;;;2.80;99.90;;;;;;4977065;28;20499;-90
2022/12/02 04:14:48;;;;;;;38.63;13.37;;;2.80;99.90;;;;;;4951354;28;20121;-90
2022/12/02 04:17:13;;;;;;;36.57;12.33;;;4.30;99.90;;;;;;4941630;28;20565;-89
2022/12/02 04:19:39;;;;;;;38.83;13.27;;;2.80;99.90;;;;;;4973971;28;20396;-89
2022/12/02 04:22:05;;;;;;;38.43;13.37;;;3.00;99.90;;;;;;4990426;28;20051;-89
2022/12/02 04:24:31;;;;;;;35.90;13.52;;;2.80;99.90;;;;;;4957811;28;20369;-90
2022/12/02 04:26:56;;;;;;;41.13;13.98;;;4.60;99.90;;;;;;4951110;28;20102;-89
2022/12/02 04:29:22;;;;;;;37.63;14.05;;;4.40;99.90;;;;;;4965224;28;20038;-90
2022/12/02 04:31:48;;;;;;;38.63;13.53;;;4.30;99.90;;;;;;4990555;28;20042;-89
2022/12/02 04:34:13;;;;;;;38.77;13.63;;;3.90;99.90;;;;;;4965753;28;20294;-90
2022/12/02 04:36:39;;;;;;;37.83;13.37;;;2.80;99.90;;;;;;4958387;28;20038;-89
2022/12/02 04:39:05;;;;;;;48.50;16.02;;;4.20;99.90;;;;;;4981519;28;20315;-89
2022/12/02 04:41:30;;;;;;;42.13;14.97;;;2.80;99.90;;;;;;4975822;28;20486;-89
2022/12/02 04:43:56;;;;;;;40.73;14.77;;;4.30;99.90;;;;;;4980293;28;20281;-89
2022/12/02 04:46:22;;;;;;;42.20;14.15;;;4.10;99.90;;;;;;4980332;28;20042;-88
2022/12/02 04:48:47;;;;;;;45.08;14.27;;;2.90;99.90;;;;;;4945424;28;20475;-90
2022/12/02 04:51:13;;;;;;;43.70;14.73;;;2.80;99.90;;;;;;4964948;28;20042;-88
2022/12/02 04:53:39;;;;;;;41.58;14.95;;;4.20;99.90;;;;;;4953175;28;20049;-89
2022/12/02 04:56:05;;;;;;;45.03;14.43;;;2.80;99.90;;;;;;4975305;28;20045;-88
2022/12/02 04:58:30;;;;;;;42.85;14.52;;;2.80;99.90;;;;;;4953560;28;20058;-88
2022/12/02 05:00:56;;;;;;;39.85;14.88;;;2.80;99.90;;;;;;4963768;28;20482;-88
2022/12/02 05:03:22;;;;;;;44.03;14.77;;;2.80;99.90;;;;;;4980360;28;20525;-89
2022/12/02 05:05:48;;;;;;;40.87;15.27;;;2.90;99.90;;;;;;4979648;28;20278;-88
2022/12/02 05:08:14;;;;;;;40.30;13.85;;;2.90;99.90;;;;;;4979226;28;20287;-89
2022/12/02 05:10:40;;;;;;;44.93;14.77;;;;;;;;;;4964324;28;20078;-89
2022/12/02 05:13:06;;;;;;;46.78;15.15;;;2.80;99.90;;;;;;4982552;28;20314;-90
2022/12/02 05:15:32;;;;;;;45.03;13.70;;;2.80;99.90;;;;;;4960705;28;20042;-89
2022/12/02 05:17:57;;;;;;;45.05;14.63;;;2.80;99.90;;;;;;4969968;28;20278;-87
2022/12/02 05:20:23;;;;;;;45.78;15.68;;;2.80;99.90;;;;;;4974186;28;20042;-89
2022/12/02 05:22:49;;;;;;;45.40;15.07;;;2.80;99.90;;;;;;4963306;28;20121;-89
2022/12/02 05:25:15;;;;;;;39.83;14.10;;;3.00;99.90;;;;;;4947452;28;20351;-90
2022/12/02 05:27:40;;;;;;;47.70;14.65;;;2.90;99.90;;;;;;4974545;28;20035;-88
2022/12/02 05:30:07;;;;;;;44.07;14.70;;;2.90;99.90;;;;;;4947360;28;20053;-89
2022/12/02 05:32:32;;;;;;;44.40;16.00;;;2.80;99.90;;;;;;4950879;28;20838;-79
2022/12/02 05:34:58;;;;;;;47.10;16.43;;;2.90;99.90;;;;;;4957268;28;20134;-79
2022/12/02 05:37:24;;;;;;;42.80;14.32;;;2.80;99.90;;;;;;4943563;28;20042;-79
2022/12/02 05:39:50;;;;;;;44.35;16.00;;;2.70;99.90;;;;;;4949961;28;20035;-80
2022/12/02 05:42:16;;;;;;;47.63;15.05;;;3.10;99.90;;;;;;4967820;28;20121;-80
2022/12/02 05:44:42;;;;;;;42.45;14.57;;;2.80;99.90;;;;;;4950018;28;20439;-79
2022/12/02 05:47:16;;;;;;;48.03;15.32;;;2.80;99.90;;;;;;4943226;28;20534;-79
2022/12/02 05:49:44;;;;;;;45.72;16.80;;;2.80;99.90;;;;;;4971594;28;20056;-79
2022/12/02 05:52:25;;;;;;;41.10;14.05;;;3.30;99.90;;;;;;4944499;28;20040;-79
2022/12/02 05:54:53;;;;;;;47.45;15.55;;;2.80;99.90;;;;;;4961514;28;20038;-79
2022/12/02 05:57:24;;;;;;;43.30;14.95;;;2.80;99.90;;;;;;4972083;28;20054;-80
2022/12/02 05:59:54;;;;;;;47.85;16.42;;;2.80;99.90;;;;;;4971240;28;20034;-79
2022/12/02 06:02:37;;;;;;;46.40;16.30;;;3.90;99.90;;;;;;4952360;28;20686;-80
2022/12/02 06:05:20;;;;;;;43.47;15.48;;;3.10;99.90;;;;;;4987009;28;20116;-79
2022/12/02 06:07:49;;;;;;;46.90;14.95;;;2.80;99.90;;;;;;4980503;28;20054;-80
2022/12/02 06:10:26;;;;;;;45.47;15.25;;;4.30;99.90;;;;;;4981333;28;20043;-79
2022/12/02 06:12:54;;;;;;;46.95;14.77;;;2.90;99.90;;;;;;4969969;28;20082;-79
2022/12/02 06:15:20;;;;;;;51.78;17.80;;;3.30;99.90;;;;;;4980214;28;20487;-78
2022/12/02 06:17:46;;;;;;;51.42;17.27;;;2.80;99.90;;;;;;4970330;28;20069;-79
2022/12/02 06:20:24;;;;;;;46.90;16.67;;;2.80;99.90;;;;;;4960994;28;20054;-78
2022/12/02 06:22:50;;;;;;;49.67;15.88;;;3.40;99.90;;;;;;4964442;28;20471;-78
2022/12/02 06:25:28;;;;;;;47.33;16.02;;;4.00;99.90;;;;;;4974867;28;20052;-78
2022/12/02 06:28:00;;;;;;;52.50;17.42;;;2.90;99.90;;;;;;4981960;28;20048;-77
2022/12/02 06:30:26;;;;;;;50.63;17.15;;;2.90;99.90;;;;;;4981349;28;20042;-79
2022/12/02 06:32:55;;;;;;;51.17;16.50;;;2.90;99.90;;;;;;4963206;28;20078;-79
2022/12/02 06:35:27;;;;;;;55.42;18.23;;;3.60;99.90;;;;;;4946459;28;20049;-78
2022/12/02 06:38:00;;;;;;;53.53;17.58;;;3.90;99.90;;;;;;4970091;28;20038;-78
2022/12/02 06:40:31;;;;;;;51.30;16.98;;;3.70;99.90;;;;;;4963952;28;20050;-78
2022/12/02 06:42:59;;;;;;;52.00;16.83;;;2.90;99.90;;;;;;4984341;28;20057;-79
2022/12/02 06:45:29;;;;;;;50.05;16.63;;;3.00;99.90;;;;;;4960743;28;20089;-79
2022/12/02 06:48:20;;;;;;;53.92;18.13;;;3.00;99.90;;;;;;4981664;28;20053;-80
2022/12/02 06:50:46;;;;;;;45.42;15.68;;;3.00;99.90;;;;;;4975886;28;20042;-80
2022/12/02 06:53:23;;;;;;;50.80;16.60;;;3.50;99.90;;;;;;4946622;28;20044;-80
2022/12/02 06:55:53;;;;;;;58.47;18.42;;;3.00;99.90;;;;;;4964679;28;20043;-80
2022/12/02 06:58:28;;;;;;;50.72;17.27;;;3.00;99.90;;;;;;4983272;28;20058;-80
2022/12/02 07:01:11;;;;;;;53.50;17.58;;;3.00;99.90;;;;;;4974785;28;20034;-80
2022/12/02 07:03:43;;;;;;;48.72;17.45;;;3.00;99.90;;;;;;4963090;28;20045;-80
2022/12/02 07:06:18;;;;;;;48.13;15.82;;;3.00;99.90;;;;;;4967691;28;20035;-80
2022/12/02 07:08:45;;;;;;;50.92;15.98;;;3.10;99.90;;;;;;4990069;28;20416;-80
2022/12/02 07:11:49;;;;;;;;;;;3.00;99.90;;;;;;4965491;28;20093;-80
2022/12/02 07:14:26;;;;;;;52.33;17.02;;;3.10;99.90;;;;;;4956231;28;19924;-80
2022/12/02 07:17:05;;;;;;;53.00;18.10;;;4.50;99.90;;;;;;4974005;28;20042;-80
2022/12/02 07:19:40;;;;;;;49.28;17.30;;;3.90;99.90;;;;;;4964038;28;20039;-80
2022/12/02 07:22:13;;;;;;;47.33;16.38;;;4.60;99.90;;;;;;4968753;28;20093;-79
2022/12/02 07:24:40;;;;;;;47.83;16.95;;;3.10;99.90;;;;;;4978251;28;20042;-77
2022/12/02 07:27:18;;;;;;;51.20;16.98;;;3.10;99.90;;;;;;4958167;28;20688;-77
2022/12/02 07:29:44;;;;;;;55.80;20.20;;;4.70;99.90;;;;;;4988853;28;20126;-76
2022/12/02 07:32:10;;;;;;;55.23;17.90;;;3.10;99.90;;;;;;4961877;28;20129;-76
2022/12/02 07:34:35;;;;;;;48.53;16.43;;;3.10;99.90;;;;;;4963503;28;20305;-77
2022/12/02 07:37:01;;;;;;;51.28;16.35;;;3.20;99.90;;;;;;4967074;28;20046;-77
2022/12/02 07:39:27;;;;;;;54.20;17.87;;;3.20;99.90;;;;;;4940496;28;20125;-77
2022/12/02 07:41:52;;;;;;;56.10;19.77;;;4.70;99.90;;;;;;4964273;28;20674;-76
2022/12/02 07:44:18;;;;;;;47.77;17.63;;;3.20;99.90;;;;;;4941548;28;20081;-77
2022/12/02 07:46:44;;;;;;;49.63;15.63;;;3.20;99.90;;;;;;4957538;28;20066;-77
2022/12/02 07:49:09;;;;;;;45.92;16.67;;;3.20;99.90;;;;;;4964386;28;20101;-78
2022/12/02 07:51:35;;;;;;;50.93;16.17;;;3.20;99.90;;;;;;4966112;28;20058;-75
2022/12/02 07:54:01;;;;;;;52.97;17.40;;;3.20;99.90;;;;;;4973582;28;20293;-78
2022/12/02 07:56:26;;;;;;;58.47;20.80;;;3.20;99.90;;;;;;4982280;28;20041;-76
2022/12/02 07:58:52;;;;;;;54.78;19.42;;;4.60;99.90;;;;;;4973787;28;20097;-78
2022/12/02 08:01:18;;;;;;;46.33;15.70;;;3.20;99.90;;;;;;4980729;28;20442;-77
2022/12/02 08:03:43;;;;;;;50.73;16.97;;;4.70;99.90;;;;;;4966315;28;20051;-78
2022/12/02 08:06:09;;;;;;;51.40;17.43;;;3.10;99.90;;;;;;4973712;28;20314;-76
2022/12/02 08:08:35;;;;;;;57.20;18.05;;;3.10;99.90;;;;;;4956878;28;20109;-77
2022/12/02 08:11:01;;;;;;;43.95;17.45;;;3.50;99.90;;;;;;4940927;28;20116;-77
2022/12/02 08:13:26;;;;;;;49.20;17.70;;;3.10;99.90;;;;;;4963490;28;20041;-77
2022/12/02 08:15:52;;;;;;;47.85;18.25;;;3.00;99.90;;;;;;4971522;28;20395;-77
2022/12/02 08:18:18;;;;;;;43.20;15.73;;;3.00;99.90;;;;;;4970573;28;20054;-78
2022/12/02 08:20:43;;;;;;;43.00;16.07;;;3.80;99.90;;;;;;4951213;28;20050;-78
2022/12/02 08:23:09;;;;;;;47.60;17.13;;;3.00;99.90;;;;;;4974675;28;20289;-78
2022/12/02 08:25:35;;;;;;;43.90;14.53;;;2.80;99.90;;;;;;4955956;28;20065;-78
2022/12/02 08:28:00;;;;;;;39.22;15.27;;;2.90;99.90;;;;;;4967698;28;20039;-78
2022/12/02 08:30:26;;;;;;;46.73;14.70;;;2.80;99.90;;;;;;4972269;28;20621;-78
2022/12/02 08:32:52;;;;;;;43.87;16.33;;;2.80;99.90;;;;;;4972350;28;20290;-78
2022/12/02 08:35:17;;;;;;;41.23;14.93;;;2.70;99.90;;;;;;4951709;28;20286;-78
2022/12/02 08:37:43;;;;;;;45.97;16.57;;;2.70;99.90;;;;;;4971981;28;20118;-78
2022/12/02 08:40:09;;;;;;;51.97;16.42;;;2.60;99.90;;;;;;4942321;28;20309;-76
2022/12/02 08:42:35;;;;;;;46.53;17.65;;;2.60;99.90;;;;;;4958409;28;20043;-76
2022/12/02 08:45:00;;;;;;;46.83;16.55;;;2.70;99.90;;;;;;4967540;28;20066;-78
2022/12/02 08:47:26;;;;;;;54.05;17.73;;;3.20;99.90;;;;;;4967606;28;20066;-76
2022/12/02 08:49:52;;;;;;;47.92;16.00;;;2.50;99.90;;;;;;4976392;28;20399;-78
2022/12/02 08:52:18;;;;;;;59.30;20.70;;;3.40;99.90;;;;;;4956293;28;20045;-78
2022/12/02 08:54:47;;;;;;;46.90;15.77;;;2.50;99.90;;;;;;4942944;28;20133;-78
2022/12/02 08:57:13;;;;;;;46.65;16.38;;;2.50;99.90;;;;;;4951423;28;20402;-79
2022/12/02 08:59:38;;;;;;;50.03;16.58;;;2.40;99.90;;;;;;4960007;28;20040;-79
2022/12/02 09:02:04;;;;;;;44.15;15.73;;;3.70;99.90;;;;;;4985676;28;20104;-78
2022/12/02 09:04:30;;;;;;;46.67;15.75;;;2.40;99.90;;;;;;4960759;28;20034;-78
2022/12/02 09:06:56;;;;;;;40.30;14.48;;;2.80;99.90;;;;;;4982459;28;20122;-78
2022/12/02 09:09:21;;;;;;;37.93;13.27;;;2.40;99.90;;;;;;4966831;28;20070;-78
2022/12/02 09:11:47;;;;;;;43.53;14.47;;;4.00;99.90;;;;;;4973516;28;20286;-78
2022/12/02 09:14:13;;;;;;;72.97;28.27;;;4.30;99.90;;;;;;4985483;28;20279;-78
2022/12/02 09:16:38;;;;;;;50.15;14.95;;;2.50;99.90;;;;;;4968781;28;20149;-76
2022/12/02 09:19:04;;;;;;;52.50;16.88;;;2.40;99.90;;;;;;4975917;28;20391;-76
2022/12/02 09:21:30;;;;;;;56.30;19.02;;;3.00;99.90;;;;;;4950426;28;20053;-76
2022/12/02 09:23:56;;;;;;;49.67;15.13;;;2.90;99.90;;;;;;4957739;28;20046;-76
2022/12/02 09:26:21;;;;;;;47.33;14.70;;;2.30;99.90;;;;;;4968699;28;20042;-76
2022/12/02 09:28:47;;;;;;;49.25;15.05;;;2.40;99.90;;;;;;4966342;28;20042;-78
2022/12/02 09:31:13;;;;;;;51.75;16.40;;;2.40;99.90;;;;;;4950425;28;20045;-75
2022/12/02 09:33:39;;;;;;;45.10;15.20;;;2.40;99.90;;;;;;4964909;28;20057;-79
2022/12/02 09:36:05;;;;;;;46.70;15.05;;;2.40;99.90;;;;;;4979062;28;20039;-78
2022/12/02 09:38:31;;;;;;;43.50;15.70;;;2.40;99.90;;;;;;4965318;28;20042;-78
2022/12/02 09:41:00;;;;;;;47.85;15.32;;;2.50;99.90;;;;;;4985572;28;20407;-79
2022/12/02 09:43:29;;;;;;;57.03;19.92;;;2.70;99.90;;;;;;4967844;28;20034;-78
2022/12/02 09:45:56;;;;;;;50.83;17.38;;;2.50;99.90;;;;;;4974473;28;20499;-79
2022/12/02 09:48:22;;;;;;;51.75;15.48;;;3.80;99.90;;;;;;4979094;28;20041;-75
2022/12/02 09:50:49;;;;;;;53.30;16.23;;;2.60;99.90;;;;;;4969309;28;20050;-76
2022/12/02 09:53:17;;;;;;;48.10;14.48;;;3.30;99.90;;;;;;4962405;28;20097;-78
2022/12/02 09:55:43;;;;;;;54.60;16.90;;;4.30;99.90;;;;;;4984208;28;20060;-77
2022/12/02 09:58:27;;;;;;;48.10;15.63;;;4.40;99.90;;;;;;4960127;28;20043;-77
2022/12/02 10:00:53;;;;;;;51.58;16.27;;;2.80;99.90;;;;;;4990375;28;20539;-78
2022/12/02 10:03:23;;;;;;;48.63;14.98;;;2.80;99.90;;;;;;4954054;28;20046;-77
2022/12/02 10:05:49;;;;;;;45.92;15.05;;;2.80;99.90;;;;;;4963800;28;20452;-77
2022/12/02 10:08:22;;;;;;;45.38;15.65;;;2.80;99.90;;;;;;4969704;28;20076;-77
2022/12/02 10:10:51;;;;;;;48.95;15.93;;;4.10;99.90;;;;;;4982865;28;20062;-77
2022/12/02 10:13:19;;;;;;;44.38;13.98;;;2.80;99.90;;;;;;4985820;28;20034;-77
2022/12/02 10:15:48;;;;;;;45.47;14.38;;;2.80;99.90;;;;;;4951701;28;20046;-77
2022/12/02 10:18:17;;;;;;;43.55;14.90;;;2.70;99.90;;;;;;4947451;28;20046;-78
2022/12/02 10:20:43;;;;;;;45.35;14.02;;;3.20;99.90;;;;;;4969728;28;20104;-78
2022/12/02 10:23:14;;;;;;;37.95;13.38;;;2.80;99.90;;;;;;4983992;28;20045;-77
2022/12/02 10:25:48;;;;;;;43.95;15.52;;;2.80;99.90;;;;;;4972288;28;20448;-76
2022/12/02 10:28:23;;;;;;;39.53;13.80;;;2.70;99.90;;;;;;4974848;28;20459;-77
2022/12/02 10:31:03;;;;;;;44.20;14.48;;;3.00;99.90;;;;;;4983443;28;20038;-78
2022/12/02 10:33:31;;;;;;;41.90;14.30;;;2.80;99.90;;;;;;4963732;28;20121;-78
2022/12/02 10:35:59;;;;;;;41.95;14.82;;;2.80;99.90;;;;;;4972064;28;20065;-77
2022/12/02 10:38:38;;;;;;;40.92;14.02;;;2.80;99.90;;;;;;4983279;28;20463;-77
2022/12/02 10:41:23;;;;;;;44.92;15.27;;;2.80;99.90;;;;;;4962265;28;20085;-78
2022/12/02 10:43:52;;;;;;;38.28;14.85;;;2.80;99.90;;;;;;4967949;28;20050;-78
2022/12/02 10:46:19;;;;;;;37.03;13.77;;;3.80;99.90;;;;;;4983594;28;20121;-77
2022/12/02 10:48:46;;;;;;;38.75;14.20;;;2.80;99.90;;;;;;4978163;28;20043;-77
2022/12/02 10:51:17;;;;;;;36.50;14.82;;;3.20;99.90;;;;;;4985764;28;20049;-76
2022/12/02 10:53:45;;;;;;;37.88;14.20;;;4.10;99.90;;;;;;4945967;28;20133;-76
2022/12/02 10:56:17;;;;;;;39.00;15.40;;;2.80;99.90;;;;;;4962469;28;20359;-78
2022/12/02 10:58:43;;;;;;;42.45;15.00;;;2.60;99.90;;;;;;4971536;28;20128;-78
2022/12/02 11:01:11;;;;;;;50.72;17.20;;;2.70;99.90;;;;;;4951146;28;20487;-77
2022/12/02 11:03:38;;;;;;;40.72;14.85;;;2.70;99.90;;;;;;4951059;28;20042;-77
2022/12/02 11:06:11;;;;;;;40.80;15.60;;;4.50;99.90;;;;;;4948320;28;20045;-78
2022/12/02 11:08:38;;;;;;;42.42;17.48;;;2.70;99.90;;;;;;4990005;28;20157;-77
2022/12/02 11:11:37;;;;;;;49.55;20.10;;;2.60;99.90;;;;;;4969418;28;20046;-78
2022/12/02 11:14:38;;;;;;;46.60;15.98;;;2.60;99.90;;;;;;4968764;28;20038;-77
2022/12/02 11:17:11;;;;;;;50.20;20.42;;;2.60;99.90;;;;;;4965179;28;21108;-77
2022/12/02 11:19:42;;;;;;;43.85;15.32;;;2.60;99.90;;;;;;4964155;28;20082;-77
2022/12/02 11:22:45;;;;;;;40.13;16.20;;;2.70;99.90;;;;;;4962462;28;20375;-77
2022/12/02 11:25:43;;;;;;;40.90;15.70;;;2.60;99.90;;;;;;4965329;28;20043;-76
2022/12/02 11:28:17;;;;;;;42.33;17.27;;;2.70;99.90;;;;;;4963307;28;20080;-77
2022/12/02 11:31:07;;;;;;;51.95;21.48;;;2.80;99.90;;;;;;4969090;28;20054;-77
2022/12/02 11:33:48;;;;;;;50.08;18.88;;;3.50;99.90;;;;;;5005253;28;20402;-77
2022/12/02 11:36:16;;;;;;;46.83;18.77;;;3.90;99.90;;;;;;4966072;28;20045;-78
2022/12/02 11:38:44;;;;;;;51.75;23.67;;;2.70;99.90;;;;;;4990169;28;20117;-77
2022/12/02 11:41:10;;;;;;;49.05;20.40;;;2.70;99.90;;;;;;4973149;28;20371;-77
2022/12/02 11:43:40;;;;;;;44.35;17.30;;;4.10;99.90;;;;;;4966750;28;20125;-77
2022/12/02 11:46:06;;;;;;;47.20;19.48;;;3.50;99.90;;;;;;4980445;28;20039;-77
2022/12/02 11:48:32;;;;;;;45.20;18.50;;;3.50;99.90;;;;;;4964041;28;20034;-77
2022/12/02 11:50:58;;;;;;;43.22;17.98;;;2.80;99.90;;;;;;4969053;28;20053;-77
2022/12/02 11:53:24;;;;;;;45.58;18.45;;;2.90;99.90;;;;;;4945265;28;20050;-78
2022/12/02 11:55:52;;;;;;;46.50;18.27;;;4.10;99.90;;;;;;4983877;28;20080;-76
2022/12/02 11:58:32;;;;;;;44.72;18.90;;;2.90;99.90;;;;;;4970496;28;20038;-77
2022/12/02 12:01:17;;;;;;;47.00;17.67;;;2.90;99.90;;;;;;4984061;28;20049;-78
2022/12/02 12:03:47;;;;;;;42.25;17.48;;;2.90;99.90;;;;;;4970322;28;20034;-77
2022/12/02 12:06:23;;;;;;;43.97;17.38;;;3.80;99.90;;;;;;4966950;28;20038;-75
2022/12/02 12:08:52;;;;;;;36.72;15.50;;;3.10;99.90;;;;;;4992923;28;20046;-76
2022/12/02 12:11:34;;;;;;;41.40;16.35;;;2.90;99.90;;;;;;4951554;28;20050;-76
2022/12/02 12:14:03;;;;;;;42.97;17.30;;;2.90;99.90;;;;;;4987780;28;20046;-76
2022/12/02 12:16:31;;;;;;;40.63;18.90;;;2.90;99.90;;;;;;4979267;28;21612;-76
2022/12/02 12:18:59;;;;;;;41.30;17.02;;;2.90;99.90;;;;;;4969494;28;20038;-77
2022/12/02 12:21:30;;;;;;;41.72;17.05;;;3.30;99.90;;;;;;4961161;28;20053;-76
2022/12/02 12:24:22;;;;;;;38.53;16.60;;;2.80;99.90;;;;;;4967245;28;20038;-77
2022/12/02 12:26:48;;;;;;;44.63;17.63;;;2.80;99.90;;;;;;4992350;28;20042;-78
2022/12/02 12:29:15;;;;;;;37.38;16.70;;;3.50;99.90;;;;;;4978249;28;20085;-76
2022/12/02 12:31:41;;;;;;;38.55;16.80;;;2.90;99.90;;;;;;4951162;28;20046;-77
2022/12/02 12:34:07;;;;;;;43.95;18.73;;;2.90;99.90;;;;;;4969205;28;20069;-77
2022/12/02 12:36:34;;;;;;;42.05;16.00;;;3.10;99.90;;;;;;4951276;28;20063;-77
2022/12/02 12:39:00;;;;;;;39.95;16.30;;;3.40;99.90;;;;;;4969401;28;20433;-76
2022/12/02 12:41:26;;;;;;;42.95;17.25;;;4.40;99.90;;;;;;4967171;28;20088;-79
2022/12/02 12:43:52;;;;;;;40.33;16.23;;;2.80;99.90;;;;;;4972747;28;20030;-80
2022/12/02 12:46:17;;;;;;;40.27;16.20;;;3.80;99.90;;;;;;4959738;28;20314;-78
2022/12/02 12:48:43;;;;;;;40.87;16.73;;;3.80;99.90;;;;;;4964602;28;20293;-79